sensor_id;sensor_type;location;lat;lon;timestamp;P1;durP1;ratioP1;P2;durP2;ratioP2
72379;SDS011;60354;47.798;12.472;2024-01-15T00:01:12;4.53;;;2.83;;
72379;SDS011;60354;47.798;12.472;2024-01-15T00:03:37;6.22;;;2.75;;
72379;SDS011;60354;47.798;12.472;2024-01-15T00:06:03;4.10;;;2.67;;
72379;SDS011;60354;47.798;12.472;2024-01-15T00:08:29;7.60;;;3.30;;
72379;SDS011;60354;47.798;12.472;2024-01-15T00:10:54;4.95;;;2.70;;
72379;SDS011;60354;47.798;12.472;2024-01-15T00:13:20;4.88;;;2.85;;
72379;SDS011;60354;47.798;12.472;2024-01-15T00:15:45;5.40;;;3.00;;
72379;SDS011;60354;47.798;12.472;2024-01-15T00:18:11;6.10;;;2.95;;
72379;SDS011;60354;47.798;12.472;2024-01-15T00:20:36;9.25;;;3.17;;
72379;SDS011;60354;47.798;12.472;2024-01-15T00:23:01;4.93;;;3.00;;
72379;SDS011;60354;47.798;12.472;2024-01-15T00:25:27;7.43;;;3.38;;
72379;SDS011;60354;47.798;12.472;2024-01-15T00:27:53;5.50;;;3.13;;
72379;SDS011;60354;47.798;12.472;2024-01-15T00:30:18;6.25;;;3.10;;
72379;SDS011;60354;47.798;12.472;2024-01-15T00:32:44;5.28;;;2.90;;
72379;SDS011;60354;47.798;12.472;2024-01-15T00:35:09;4.88;;;2.83;;
72379;SDS011;60354;47.798;12.472;2024-01-15T00:37:35;8.18;;;2.92;;
72379;SDS011;60354;47.798;12.472;2024-01-15T00:40:00;4.60;;;2.70;;
72379;SDS011;60354;47.798;12.472;2024-01-15T00:42:26;6.28;;;2.90;;
72379;SDS011;60354;47.798;12.472;2024-01-15T00:44:51;5.47;;;3.08;;
72379;SDS011;60354;47.798;12.472;2024-01-15T00:47:18;4.85;;;2.83;;
72379;SDS011;60354;47.798;12.472;2024-01-15T00:49:43;6.95;;;3.30;;
72379;SDS011;60354;47.798;12.472;2024-01-15T00:52:09;5.60;;;2.95;;
72379;SDS011;60354;47.798;12.472;2024-01-15T00:54:34;5.05;;;3.10;;
72379;SDS011;60354;47.798;12.472;2024-01-15T00:57:00;5.47;;;3.05;;
72379;SDS011;60354;47.798;12.472;2024-01-15T00:59:26;4.93;;;3.15;;
72379;SDS011;60354;47.798;12.472;2024-01-15T01:01:51;4.40;;;2.83;;
72379;SDS011;60354;47.798;12.472;2024-01-15T01:04:17;6.47;;;3.28;;
72379;SDS011;60354;47.798;12.472;2024-01-15T01:06:42;4.88;;;2.80;;
72379;SDS011;60354;47.798;12.472;2024-01-15T01:09:08;4.70;;;2.65;;
72379;SDS011;60354;47.798;12.472;2024-01-15T01:11:33;9.07;;;6.05;;
72379;SDS011;60354;47.798;12.472;2024-01-15T01:13:59;5.82;;;3.80;;
72379;SDS011;60354;47.798;12.472;2024-01-15T01:16:25;8.07;;;3.83;;
72379;SDS011;60354;47.798;12.472;2024-01-15T01:18:51;6.05;;;2.60;;
72379;SDS011;60354;47.798;12.472;2024-01-15T01:21:16;4.05;;;2.20;;
72379;SDS011;60354;47.798;12.472;2024-01-15T01:23:42;3.25;;;1.98;;
72379;SDS011;60354;47.798;12.472;2024-01-15T01:26:07;3.00;;;1.85;;
72379;SDS011;60354;47.798;12.472;2024-01-15T01:28:33;2.70;;;1.65;;
72379;SDS011;60354;47.798;12.472;2024-01-15T01:30:59;3.75;;;1.88;;
72379;SDS011;60354;47.798;12.472;2024-01-15T01:33:24;3.13;;;1.83;;
72379;SDS011;60354;47.798;12.472;2024-01-15T01:35:50;3.25;;;1.80;;
72379;SDS011;60354;47.798;12.472;2024-01-15T01:38:15;2.83;;;1.90;;
72379;SDS011;60354;47.798;12.472;2024-01-15T01:40:41;3.45;;;1.80;;
72379;SDS011;60354;47.798;12.472;2024-01-15T01:43:06;2.45;;;1.63;;
72379;SDS011;60354;47.798;12.472;2024-01-15T01:45:34;3.60;;;2.00;;
72379;SDS011;60354;47.798;12.472;2024-01-15T01:48:00;3.58;;;2.15;;
72379;SDS011;60354;47.798;12.472;2024-01-15T01:50:27;4.53;;;2.00;;
72379;SDS011;60354;47.798;12.472;2024-01-15T01:52:54;2.80;;;1.58;;
72379;SDS011;60354;47.798;12.472;2024-01-15T01:55:20;4.72;;;1.90;;
72379;SDS011;60354;47.798;12.472;2024-01-15T01:57:49;2.85;;;1.90;;
72379;SDS011;60354;47.798;12.472;2024-01-15T02:00:18;3.78;;;2.10;;
72379;SDS011;60354;47.798;12.472;2024-01-15T02:02:43;3.78;;;2.00;;
72379;SDS011;60354;47.798;12.472;2024-01-15T02:05:10;3.25;;;1.80;;
72379;SDS011;60354;47.798;12.472;2024-01-15T02:07:37;3.80;;;2.05;;
72379;SDS011;60354;47.798;12.472;2024-01-15T02:10:02;4.63;;;1.85;;
72379;SDS011;60354;47.798;12.472;2024-01-15T02:12:28;3.88;;;1.88;;
72379;SDS011;60354;47.798;12.472;2024-01-15T02:14:54;2.95;;;1.90;;
72379;SDS011;60354;47.798;12.472;2024-01-15T02:17:19;3.60;;;2.00;;
72379;SDS011;60354;47.798;12.472;2024-01-15T02:19:45;3.08;;;2.08;;
72379;SDS011;60354;47.798;12.472;2024-01-15T02:22:10;4.15;;;2.30;;
72379;SDS011;60354;47.798;12.472;2024-01-15T02:24:36;3.72;;;2.30;;
72379;SDS011;60354;47.798;12.472;2024-01-15T02:27:01;3.53;;;1.95;;
72379;SDS011;60354;47.798;12.472;2024-01-15T02:29:27;3.70;;;2.28;;
72379;SDS011;60354;47.798;12.472;2024-01-15T02:31:52;5.53;;;2.80;;
72379;SDS011;60354;47.798;12.472;2024-01-15T02:34:18;6.78;;;3.45;;
72379;SDS011;60354;47.798;12.472;2024-01-15T02:36:43;6.25;;;3.70;;
72379;SDS011;60354;47.798;12.472;2024-01-15T02:39:09;6.10;;;3.42;;
72379;SDS011;60354;47.798;12.472;2024-01-15T02:41:34;7.40;;;3.90;;
72379;SDS011;60354;47.798;12.472;2024-01-15T02:44:00;11.40;;;4.70;;
72379;SDS011;60354;47.798;12.472;2024-01-15T02:46:25;9.48;;;3.90;;
72379;SDS011;60354;47.798;12.472;2024-01-15T02:48:51;9.70;;;5.20;;
72379;SDS011;60354;47.798;12.472;2024-01-15T02:51:16;11.75;;;5.63;;
72379;SDS011;60354;47.798;12.472;2024-01-15T02:53:42;10.73;;;5.55;;
72379;SDS011;60354;47.798;12.472;2024-01-15T02:56:07;12.43;;;5.35;;
72379;SDS011;60354;47.798;12.472;2024-01-15T02:58:33;12.38;;;6.03;;
72379;SDS011;60354;47.798;12.472;2024-01-15T03:00:58;11.45;;;5.60;;
72379;SDS011;60354;47.798;12.472;2024-01-15T03:03:24;12.25;;;5.85;;
72379;SDS011;60354;47.798;12.472;2024-01-15T03:05:49;14.73;;;6.32;;
72379;SDS011;60354;47.798;12.472;2024-01-15T03:08:14;12.85;;;6.10;;
72379;SDS011;60354;47.798;12.472;2024-01-15T03:10:40;12.13;;;5.78;;
72379;SDS011;60354;47.798;12.472;2024-01-15T03:13:05;14.23;;;7.00;;
72379;SDS011;60354;47.798;12.472;2024-01-15T03:15:31;12.57;;;6.07;;
72379;SDS011;60354;47.798;12.472;2024-01-15T03:17:56;12.57;;;6.30;;
72379;SDS011;60354;47.798;12.472;2024-01-15T03:20:22;13.73;;;6.40;;
72379;SDS011;60354;47.798;12.472;2024-01-15T03:22:47;11.82;;;5.80;;
72379;SDS011;60354;47.798;12.472;2024-01-15T03:25:13;14.48;;;6.13;;
72379;SDS011;60354;47.798;12.472;2024-01-15T03:27:38;12.45;;;5.63;;
72379;SDS011;60354;47.798;12.472;2024-01-15T03:30:04;10.90;;;5.65;;
72379;SDS011;60354;47.798;12.472;2024-01-15T03:32:30;11.32;;;5.72;;
72379;SDS011;60354;47.798;12.472;2024-01-15T03:34:55;12.88;;;5.80;;
72379;SDS011;60354;47.798;12.472;2024-01-15T03:37:21;10.93;;;5.70;;
72379;SDS011;60354;47.798;12.472;2024-01-15T03:39:46;13.80;;;6.32;;
72379;SDS011;60354;47.798;12.472;2024-01-15T03:42:11;11.93;;;5.72;;
72379;SDS011;60354;47.798;12.472;2024-01-15T03:44:37;12.90;;;6.00;;
72379;SDS011;60354;47.798;12.472;2024-01-15T03:47:02;8.98;;;5.53;;
72379;SDS011;60354;47.798;12.472;2024-01-15T03:49:28;11.70;;;5.57;;
72379;SDS011;60354;47.798;12.472;2024-01-15T03:51:53;11.65;;;5.70;;
72379;SDS011;60354;47.798;12.472;2024-01-15T03:54:19;11.40;;;5.82;;
72379;SDS011;60354;47.798;12.472;2024-01-15T03:56:44;11.95;;;5.65;;
72379;SDS011;60354;47.798;12.472;2024-01-15T03:59:10;11.02;;;5.10;;
72379;SDS011;60354;47.798;12.472;2024-01-15T04:01:35;11.55;;;5.68;;
72379;SDS011;60354;47.798;12.472;2024-01-15T04:04:01;11.27;;;5.47;;
72379;SDS011;60354;47.798;12.472;2024-01-15T04:06:26;10.82;;;5.05;;
72379;SDS011;60354;47.798;12.472;2024-01-15T04:08:51;12.35;;;5.85;;
72379;SDS011;60354;47.798;12.472;2024-01-15T04:11:17;8.93;;;5.15;;
72379;SDS011;60354;47.798;12.472;2024-01-15T04:13:42;12.20;;;5.60;;
72379;SDS011;60354;47.798;12.472;2024-01-15T04:16:08;10.63;;;5.30;;
72379;SDS011;60354;47.798;12.472;2024-01-15T04:18:33;11.02;;;5.15;;
72379;SDS011;60354;47.798;12.472;2024-01-15T04:20:59;9.10;;;4.18;;
72379;SDS011;60354;47.798;12.472;2024-01-15T04:23:24;8.25;;;4.15;;
72379;SDS011;60354;47.798;12.472;2024-01-15T04:25:50;10.15;;;4.90;;
72379;SDS011;60354;47.798;12.472;2024-01-15T04:28:15;9.27;;;4.05;;
72379;SDS011;60354;47.798;12.472;2024-01-15T04:30:41;7.30;;;3.20;;
72379;SDS011;60354;47.798;12.472;2024-01-15T04:33:06;6.93;;;3.33;;
72379;SDS011;60354;47.798;12.472;2024-01-15T04:35:32;7.40;;;3.20;;
72379;SDS011;60354;47.798;12.472;2024-01-15T04:37:58;6.85;;;3.20;;
72379;SDS011;60354;47.798;12.472;2024-01-15T04:40:23;6.68;;;3.10;;
72379;SDS011;60354;47.798;12.472;2024-01-15T04:42:53;4.15;;;2.20;;
72379;SDS011;60354;47.798;12.472;2024-01-15T04:45:19;5.82;;;2.20;;
72379;SDS011;60354;47.798;12.472;2024-01-15T04:47:48;5.10;;;2.15;;
72379;SDS011;60354;47.798;12.472;2024-01-15T04:50:14;6.05;;;2.55;;
72379;SDS011;60354;47.798;12.472;2024-01-15T04:52:39;5.53;;;2.33;;
72379;SDS011;60354;47.798;12.472;2024-01-15T04:55:05;5.80;;;2.58;;
72379;SDS011;60354;47.798;12.472;2024-01-15T04:57:30;5.85;;;2.67;;
72379;SDS011;60354;47.798;12.472;2024-01-15T04:59:56;5.20;;;2.65;;
72379;SDS011;60354;47.798;12.472;2024-01-15T05:02:21;5.28;;;2.30;;
72379;SDS011;60354;47.798;12.472;2024-01-15T05:04:47;5.22;;;2.47;;
72379;SDS011;60354;47.798;12.472;2024-01-15T05:07:12;6.25;;;2.67;;
72379;SDS011;60354;47.798;12.472;2024-01-15T05:09:37;6.70;;;3.28;;
72379;SDS011;60354;47.798;12.472;2024-01-15T05:12:03;6.00;;;2.85;;
72379;SDS011;60354;47.798;12.472;2024-01-15T05:14:29;6.57;;;2.75;;
72379;SDS011;60354;47.798;12.472;2024-01-15T05:16:54;6.47;;;2.63;;
72379;SDS011;60354;47.798;12.472;2024-01-15T05:19:20;3.80;;;2.15;;
72379;SDS011;60354;47.798;12.472;2024-01-15T05:21:45;5.50;;;2.45;;
72379;SDS011;60354;47.798;12.472;2024-01-15T05:24:10;5.07;;;2.13;;
72379;SDS011;60354;47.798;12.472;2024-01-15T05:26:36;5.38;;;2.58;;
72379;SDS011;60354;47.798;12.472;2024-01-15T05:29:01;5.75;;;2.38;;
72379;SDS011;60354;47.798;12.472;2024-01-15T05:31:27;3.95;;;1.90;;
72379;SDS011;60354;47.798;12.472;2024-01-15T05:33:52;4.30;;;2.20;;
72379;SDS011;60354;47.798;12.472;2024-01-15T05:36:18;5.00;;;2.58;;
72379;SDS011;60354;47.798;12.472;2024-01-15T05:38:44;4.28;;;2.25;;
72379;SDS011;60354;47.798;12.472;2024-01-15T05:41:09;4.97;;;2.22;;
72379;SDS011;60354;47.798;12.472;2024-01-15T05:43:35;4.75;;;2.55;;
72379;SDS011;60354;47.798;12.472;2024-01-15T05:46:01;3.85;;;1.98;;
72379;SDS011;60354;47.798;12.472;2024-01-15T05:48:26;4.15;;;2.00;;
72379;SDS011;60354;47.798;12.472;2024-01-15T05:50:52;4.68;;;2.10;;
72379;SDS011;60354;47.798;12.472;2024-01-15T05:53:17;4.68;;;2.17;;
72379;SDS011;60354;47.798;12.472;2024-01-15T05:55:43;3.33;;;1.80;;
72379;SDS011;60354;47.798;12.472;2024-01-15T05:58:08;3.30;;;1.80;;
72379;SDS011;60354;47.798;12.472;2024-01-15T06:00:34;4.25;;;2.17;;
72379;SDS011;60354;47.798;12.472;2024-01-15T06:03:00;3.42;;;1.70;;
72379;SDS011;60354;47.798;12.472;2024-01-15T06:05:26;3.72;;;2.05;;
72379;SDS011;60354;47.798;12.472;2024-01-15T06:07:51;3.90;;;1.80;;
72379;SDS011;60354;47.798;12.472;2024-01-15T06:10:17;3.95;;;1.85;;
72379;SDS011;60354;47.798;12.472;2024-01-15T06:12:43;2.97;;;1.63;;
72379;SDS011;60354;47.798;12.472;2024-01-15T06:15:09;3.70;;;1.70;;
72379;SDS011;60354;47.798;12.472;2024-01-15T06:17:35;3.30;;;1.50;;
72379;SDS011;60354;47.798;12.472;2024-01-15T06:20:00;4.35;;;1.65;;
72379;SDS011;60354;47.798;12.472;2024-01-15T06:22:26;4.22;;;1.60;;
72379;SDS011;60354;47.798;12.472;2024-01-15T06:24:51;3.88;;;1.60;;
72379;SDS011;60354;47.798;12.472;2024-01-15T06:27:17;3.28;;;1.60;;
72379;SDS011;60354;47.798;12.472;2024-01-15T06:29:44;2.83;;;1.55;;
72379;SDS011;60354;47.798;12.472;2024-01-15T06:32:12;3.10;;;1.38;;
72379;SDS011;60354;47.798;12.472;2024-01-15T06:34:38;2.05;;;1.00;;
72379;SDS011;60354;47.798;12.472;2024-01-15T06:37:03;36.97;;;1.70;;
72379;SDS011;60354;47.798;12.472;2024-01-15T06:39:29;2.83;;;1.40;;
72379;SDS011;60354;47.798;12.472;2024-01-15T06:41:54;2.42;;;1.40;;
72379;SDS011;60354;47.798;12.472;2024-01-15T06:44:20;2.80;;;1.65;;
72379;SDS011;60354;47.798;12.472;2024-01-15T06:46:46;2.70;;;1.40;;
72379;SDS011;60354;47.798;12.472;2024-01-15T06:49:13;2.78;;;1.40;;
72379;SDS011;60354;47.798;12.472;2024-01-15T06:51:39;2.92;;;1.60;;
72379;SDS011;60354;47.798;12.472;2024-01-15T06:54:04;2.42;;;1.30;;
72379;SDS011;60354;47.798;12.472;2024-01-15T06:56:30;2.60;;;1.38;;
72379;SDS011;60354;47.798;12.472;2024-01-15T06:58:56;2.30;;;1.55;;
72379;SDS011;60354;47.798;12.472;2024-01-15T07:01:22;3.15;;;1.27;;
72379;SDS011;60354;47.798;12.472;2024-01-15T07:03:48;3.22;;;1.23;;
72379;SDS011;60354;47.798;12.472;2024-01-15T07:06:13;2.80;;;1.15;;
72379;SDS011;60354;47.798;12.472;2024-01-15T07:08:39;2.58;;;1.35;;
72379;SDS011;60354;47.798;12.472;2024-01-15T07:11:05;3.00;;;1.42;;
72379;SDS011;60354;47.798;12.472;2024-01-15T07:13:31;3.45;;;1.35;;
72379;SDS011;60354;47.798;12.472;2024-01-15T07:15:57;2.80;;;1.38;;
72379;SDS011;60354;47.798;12.472;2024-01-15T07:18:22;3.40;;;1.50;;
72379;SDS011;60354;47.798;12.472;2024-01-15T07:20:48;2.50;;;1.33;;
72379;SDS011;60354;47.798;12.472;2024-01-15T07:23:14;2.60;;;1.40;;
72379;SDS011;60354;47.798;12.472;2024-01-15T07:25:39;2.60;;;1.35;;
72379;SDS011;60354;47.798;12.472;2024-01-15T07:28:05;3.15;;;1.20;;
72379;SDS011;60354;47.798;12.472;2024-01-15T07:30:30;2.08;;;1.20;;
72379;SDS011;60354;47.798;12.472;2024-01-15T07:32:56;2.20;;;1.23;;
72379;SDS011;60354;47.798;12.472;2024-01-15T07:35:21;1.85;;;1.20;;
72379;SDS011;60354;47.798;12.472;2024-01-15T07:37:47;2.05;;;1.23;;
72379;SDS011;60354;47.798;12.472;2024-01-15T07:40:12;4.32;;;1.30;;
72379;SDS011;60354;47.798;12.472;2024-01-15T07:42:38;5.53;;;1.70;;
72379;SDS011;60354;47.798;12.472;2024-01-15T07:45:04;2.30;;;1.50;;
72379;SDS011;60354;47.798;12.472;2024-01-15T07:47:30;3.03;;;1.40;;
72379;SDS011;60354;47.798;12.472;2024-01-15T07:49:55;3.30;;;1.60;;
72379;SDS011;60354;47.798;12.472;2024-01-15T07:52:21;3.65;;;2.22;;
72379;SDS011;60354;47.798;12.472;2024-01-15T07:54:47;3.88;;;1.70;;
72379;SDS011;60354;47.798;12.472;2024-01-15T07:57:12;3.17;;;1.63;;
72379;SDS011;60354;47.798;12.472;2024-01-15T07:59:38;2.85;;;1.45;;
72379;SDS011;60354;47.798;12.472;2024-01-15T08:02:03;3.10;;;1.50;;
72379;SDS011;60354;47.798;12.472;2024-01-15T08:04:29;4.88;;;1.65;;
72379;SDS011;60354;47.798;12.472;2024-01-15T08:06:54;5.28;;;2.10;;
72379;SDS011;60354;47.798;12.472;2024-01-15T08:09:20;5.88;;;2.20;;
72379;SDS011;60354;47.798;12.472;2024-01-15T08:11:45;2.67;;;1.55;;
72379;SDS011;60354;47.798;12.472;2024-01-15T08:14:11;4.13;;;1.75;;
72379;SDS011;60354;47.798;12.472;2024-01-15T08:16:38;4.65;;;2.20;;
72379;SDS011;60354;47.798;12.472;2024-01-15T08:19:04;3.70;;;1.88;;
72379;SDS011;60354;47.798;12.472;2024-01-15T08:21:30;2.90;;;1.90;;
72379;SDS011;60354;47.798;12.472;2024-01-15T08:24:00;3.60;;;1.85;;
72379;SDS011;60354;47.798;12.472;2024-01-15T08:26:27;4.55;;;2.00;;
72379;SDS011;60354;47.798;12.472;2024-01-15T08:28:56;3.95;;;2.03;;
72379;SDS011;60354;47.798;12.472;2024-01-15T08:31:22;3.70;;;1.83;;
72379;SDS011;60354;47.798;12.472;2024-01-15T08:33:48;5.38;;;2.10;;
72379;SDS011;60354;47.798;12.472;2024-01-15T08:36:13;3.17;;;1.58;;
72379;SDS011;60354;47.798;12.472;2024-01-15T08:38:39;3.95;;;2.05;;
72379;SDS011;60354;47.798;12.472;2024-01-15T08:41:04;3.63;;;2.00;;
72379;SDS011;60354;47.798;12.472;2024-01-15T08:43:30;3.30;;;1.77;;
72379;SDS011;60354;47.798;12.472;2024-01-15T08:45:56;5.05;;;2.25;;
72379;SDS011;60354;47.798;12.472;2024-01-15T08:48:22;4.70;;;1.70;;
72379;SDS011;60354;47.798;12.472;2024-01-15T08:50:47;5.93;;;2.35;;
72379;SDS011;60354;47.798;12.472;2024-01-15T08:53:13;4.30;;;2.28;;
72379;SDS011;60354;47.798;12.472;2024-01-15T08:55:39;3.90;;;2.25;;
72379;SDS011;60354;47.798;12.472;2024-01-15T08:58:04;4.38;;;2.45;;
72379;SDS011;60354;47.798;12.472;2024-01-15T09:00:31;5.85;;;2.78;;
72379;SDS011;60354;47.798;12.472;2024-01-15T09:02:57;4.38;;;2.15;;
72379;SDS011;60354;47.798;12.472;2024-01-15T09:05:22;5.10;;;2.63;;
72379;SDS011;60354;47.798;12.472;2024-01-15T09:07:48;4.10;;;2.15;;
72379;SDS011;60354;47.798;12.472;2024-01-15T09:10:14;4.05;;;1.70;;
72379;SDS011;60354;47.798;12.472;2024-01-15T09:12:39;4.28;;;1.80;;
72379;SDS011;60354;47.798;12.472;2024-01-15T09:15:05;4.20;;;1.90;;
72379;SDS011;60354;47.798;12.472;2024-01-15T09:17:31;4.25;;;1.92;;
72379;SDS011;60354;47.798;12.472;2024-01-15T09:19:57;6.68;;;1.80;;
72379;SDS011;60354;47.798;12.472;2024-01-15T09:22:23;4.82;;;1.77;;
72379;SDS011;60354;47.798;12.472;2024-01-15T09:24:48;5.20;;;2.40;;
72379;SDS011;60354;47.798;12.472;2024-01-15T09:27:14;4.25;;;2.00;;
72379;SDS011;60354;47.798;12.472;2024-01-15T09:29:40;4.93;;;2.47;;
72379;SDS011;60354;47.798;12.472;2024-01-15T09:32:08;4.13;;;2.38;;
72379;SDS011;60354;47.798;12.472;2024-01-15T09:34:34;3.60;;;2.10;;
72379;SDS011;60354;47.798;12.472;2024-01-15T09:37:00;4.60;;;2.42;;
72379;SDS011;60354;47.798;12.472;2024-01-15T09:39:26;3.70;;;2.15;;
72379;SDS011;60354;47.798;12.472;2024-01-15T09:41:53;4.47;;;2.45;;
72379;SDS011;60354;47.798;12.472;2024-01-15T09:44:19;4.85;;;2.38;;
72379;SDS011;60354;47.798;12.472;2024-01-15T09:46:45;5.32;;;2.50;;
72379;SDS011;60354;47.798;12.472;2024-01-15T09:49:11;4.63;;;2.35;;
72379;SDS011;60354;47.798;12.472;2024-01-15T09:51:37;6.82;;;2.25;;
72379;SDS011;60354;47.798;12.472;2024-01-15T09:54:04;6.50;;;2.42;;
72379;SDS011;60354;47.798;12.472;2024-01-15T09:56:30;5.45;;;2.30;;
72379;SDS011;60354;47.798;12.472;2024-01-15T09:58:56;5.22;;;2.55;;
72379;SDS011;60354;47.798;12.472;2024-01-15T10:01:23;4.45;;;2.58;;
72379;SDS011;60354;47.798;12.472;2024-01-15T10:03:50;4.38;;;2.60;;
72379;SDS011;60354;47.798;12.472;2024-01-15T10:06:16;5.88;;;2.60;;
72379;SDS011;60354;47.798;12.472;2024-01-15T10:08:44;5.95;;;2.70;;
72379;SDS011;60354;47.798;12.472;2024-01-15T10:13:44;4.95;;;2.85;;
72379;SDS011;60354;47.798;12.472;2024-01-15T10:16:10;5.50;;;2.80;;
72379;SDS011;60354;47.798;12.472;2024-01-15T10:18:36;5.45;;;2.80;;
72379;SDS011;60354;47.798;12.472;2024-01-15T10:21:08;4.63;;;2.75;;
72379;SDS011;60354;47.798;12.472;2024-01-15T10:23:33;5.93;;;2.63;;
72379;SDS011;60354;47.798;12.472;2024-01-15T10:25:59;6.85;;;3.00;;
72379;SDS011;60354;47.798;12.472;2024-01-15T10:28:28;7.55;;;2.78;;
72379;SDS011;60354;47.798;12.472;2024-01-15T10:30:56;5.80;;;2.90;;
72379;SDS011;60354;47.798;12.472;2024-01-15T10:33:24;7.38;;;3.03;;
72379;SDS011;60354;47.798;12.472;2024-01-15T10:35:56;5.93;;;2.85;;
72379;SDS011;60354;47.798;12.472;2024-01-15T10:38:24;6.57;;;3.00;;
72379;SDS011;60354;47.798;12.472;2024-01-15T10:43:18;8.00;;;3.30;;
72379;SDS011;60354;47.798;12.472;2024-01-15T10:45:47;7.43;;;3.05;;
72379;SDS011;60354;47.798;12.472;2024-01-15T10:48:13;9.60;;;3.80;;
72379;SDS011;60354;47.798;12.472;2024-01-15T10:50:41;6.25;;;3.22;;
72379;SDS011;60354;47.798;12.472;2024-01-15T10:53:07;5.85;;;3.20;;
72379;SDS011;60354;47.798;12.472;2024-01-15T10:55:35;8.07;;;3.58;;
72379;SDS011;60354;47.798;12.472;2024-01-15T10:58:02;8.20;;;3.08;;
72379;SDS011;60354;47.798;12.472;2024-01-15T11:00:29;7.32;;;3.40;;
72379;SDS011;60354;47.798;12.472;2024-01-15T11:02:55;6.28;;;3.30;;
72379;SDS011;60354;47.798;12.472;2024-01-15T11:05:21;6.57;;;3.13;;
72379;SDS011;60354;47.798;12.472;2024-01-15T11:07:50;6.85;;;2.92;;
72379;SDS011;60354;47.798;12.472;2024-01-15T11:16:01;6.32;;;2.60;;
72379;SDS011;60354;47.798;12.472;2024-01-15T11:18:32;5.82;;;2.30;;
72379;SDS011;60354;47.798;12.472;2024-01-15T11:28:56;4.47;;;2.20;;
72379;SDS011;60354;47.798;12.472;2024-01-15T11:31:56;5.80;;;2.28;;
72379;SDS011;60354;47.798;12.472;2024-01-15T11:34:12;5.50;;;2.20;;
72379;SDS011;60354;47.798;12.472;2024-01-15T11:41:57;4.00;;;2.28;;
72379;SDS011;60354;47.798;12.472;2024-01-15T11:44:23;4.82;;;2.08;;
72379;SDS011;60354;47.798;12.472;2024-01-15T11:46:59;6.95;;;2.30;;
72379;SDS011;60354;47.798;12.472;2024-01-15T11:54:40;4.47;;;2.10;;
72379;SDS011;60354;47.798;12.472;2024-01-15T11:57:15;4.25;;;2.13;;
72379;SDS011;60354;47.798;12.472;2024-01-15T11:59:50;3.97;;;1.90;;
72379;SDS011;60354;47.798;12.472;2024-01-15T12:02:16;3.88;;;2.10;;
72379;SDS011;60354;47.798;12.472;2024-01-15T12:04:42;5.53;;;2.10;;
72379;SDS011;60354;47.798;12.472;2024-01-15T12:07:07;4.50;;;2.00;;
72379;SDS011;60354;47.798;12.472;2024-01-15T12:09:33;4.60;;;2.30;;
72379;SDS011;60354;47.798;12.472;2024-01-15T12:12:02;4.18;;;2.20;;
72379;SDS011;60354;47.798;12.472;2024-01-15T12:14:32;5.63;;;2.38;;
72379;SDS011;60354;47.798;12.472;2024-01-15T12:16:58;4.32;;;2.20;;
72379;SDS011;60354;47.798;12.472;2024-01-15T12:19:23;5.22;;;2.42;;
72379;SDS011;60354;47.798;12.472;2024-01-15T12:21:50;5.55;;;2.72;;
72379;SDS011;60354;47.798;12.472;2024-01-15T12:24:16;8.65;;;3.58;;
72379;SDS011;60354;47.798;12.472;2024-01-15T12:26:42;6.88;;;3.60;;
72379;SDS011;60354;47.798;12.472;2024-01-15T12:29:08;4.00;;;2.40;;
72379;SDS011;60354;47.798;12.472;2024-01-15T12:31:36;4.05;;;2.10;;
72379;SDS011;60354;47.798;12.472;2024-01-15T12:34:01;2.40;;;1.50;;
72379;SDS011;60354;47.798;12.472;2024-01-15T12:36:30;3.53;;;1.77;;
72379;SDS011;60354;47.798;12.472;2024-01-15T12:38:59;2.65;;;1.60;;
72379;SDS011;60354;47.798;12.472;2024-01-15T12:41:27;3.03;;;1.35;;
72379;SDS011;60354;47.798;12.472;2024-01-15T12:43:54;2.72;;;1.45;;
72379;SDS011;60354;47.798;12.472;2024-01-15T12:46:20;1.58;;;0.95;;
72379;SDS011;60354;47.798;12.472;2024-01-15T12:48:45;1.83;;;1.00;;
72379;SDS011;60354;47.798;12.472;2024-01-15T12:51:11;1.83;;;1.10;;
72379;SDS011;60354;47.798;12.472;2024-01-15T12:53:36;1.33;;;0.80;;
72379;SDS011;60354;47.798;12.472;2024-01-15T12:56:02;2.20;;;1.10;;
72379;SDS011;60354;47.798;12.472;2024-01-15T12:58:28;2.45;;;0.95;;
72379;SDS011;60354;47.798;12.472;2024-01-15T13:00:53;1.48;;;1.00;;
72379;SDS011;60354;47.798;12.472;2024-01-15T13:03:19;1.30;;;0.90;;
72379;SDS011;60354;47.798;12.472;2024-01-15T13:05:45;1.33;;;0.90;;
72379;SDS011;60354;47.798;12.472;2024-01-15T13:08:10;3.00;;;1.60;;
72379;SDS011;60354;47.798;12.472;2024-01-15T13:10:36;2.30;;;1.20;;
72379;SDS011;60354;47.798;12.472;2024-01-15T13:13:01;3.25;;;1.50;;
72379;SDS011;60354;47.798;12.472;2024-01-15T13:15:27;2.03;;;1.13;;
72379;SDS011;60354;47.798;12.472;2024-01-15T13:17:53;1.67;;;1.17;;
72379;SDS011;60354;47.798;12.472;2024-01-15T13:20:18;2.15;;;1.20;;
72379;SDS011;60354;47.798;12.472;2024-01-15T13:22:43;1.63;;;1.10;;
72379;SDS011;60354;47.798;12.472;2024-01-15T13:25:09;3.20;;;1.70;;
72379;SDS011;60354;47.798;12.472;2024-01-15T13:27:36;3.20;;;1.58;;
72379;SDS011;60354;47.798;12.472;2024-01-15T13:30:02;3.50;;;1.88;;
72379;SDS011;60354;47.798;12.472;2024-01-15T13:32:28;2.47;;;1.42;;
72379;SDS011;60354;47.798;12.472;2024-01-15T13:34:55;3.40;;;1.73;;
72379;SDS011;60354;47.798;12.472;2024-01-15T13:37:21;2.92;;;1.55;;
72379;SDS011;60354;47.798;12.472;2024-01-15T13:39:49;3.13;;;1.60;;
72379;SDS011;60354;47.798;12.472;2024-01-15T13:42:17;1.60;;;1.00;;
72379;SDS011;60354;47.798;12.472;2024-01-15T13:44:42;2.58;;;1.50;;
72379;SDS011;60354;47.798;12.472;2024-01-15T13:47:08;4.70;;;2.38;;
72379;SDS011;60354;47.798;12.472;2024-01-15T13:49:34;2.88;;;1.65;;
72379;SDS011;60354;47.798;12.472;2024-01-15T13:52:01;2.00;;;1.40;;
72379;SDS011;60354;47.798;12.472;2024-01-15T13:54:29;3.55;;;1.40;;
72379;SDS011;60354;47.798;12.472;2024-01-15T13:56:55;4.60;;;1.52;;
72379;SDS011;60354;47.798;12.472;2024-01-15T13:59:21;2.47;;;1.30;;
72379;SDS011;60354;47.798;12.472;2024-01-15T14:01:46;3.47;;;1.75;;
72379;SDS011;60354;47.798;12.472;2024-01-15T14:04:12;2.20;;;1.40;;
72379;SDS011;60354;47.798;12.472;2024-01-15T14:06:38;2.50;;;1.58;;
72379;SDS011;60354;47.798;12.472;2024-01-15T14:09:04;3.38;;;1.40;;
72379;SDS011;60354;47.798;12.472;2024-01-15T14:11:30;3.83;;;1.40;;
72379;SDS011;60354;47.798;12.472;2024-01-15T14:13:56;2.20;;;1.10;;
72379;SDS011;60354;47.798;12.472;2024-01-15T14:16:22;2.42;;;1.40;;
72379;SDS011;60354;47.798;12.472;2024-01-15T14:18:47;1.65;;;1.10;;
72379;SDS011;60354;47.798;12.472;2024-01-15T14:21:13;2.15;;;1.20;;
72379;SDS011;60354;47.798;12.472;2024-01-15T14:23:39;2.22;;;1.20;;
72379;SDS011;60354;47.798;12.472;2024-01-15T14:26:05;2.40;;;1.10;;
72379;SDS011;60354;47.798;12.472;2024-01-15T14:28:30;1.77;;;1.10;;
72379;SDS011;60354;47.798;12.472;2024-01-15T14:30:56;1.52;;;1.00;;
72379;SDS011;60354;47.798;12.472;2024-01-15T14:33:23;2.10;;;1.20;;
72379;SDS011;60354;47.798;12.472;2024-01-15T14:35:49;1.33;;;0.90;;
72379;SDS011;60354;47.798;12.472;2024-01-15T14:38:14;3.17;;;0.93;;
72379;SDS011;60354;47.798;12.472;2024-01-15T14:40:40;3.13;;;1.35;;
72379;SDS011;60354;47.798;12.472;2024-01-15T14:43:05;4.80;;;1.70;;
72379;SDS011;60354;47.798;12.472;2024-01-15T14:45:31;21.25;;;6.15;;
72379;SDS011;60354;47.798;12.472;2024-01-15T14:47:56;18.70;;;5.85;;
72379;SDS011;60354;47.798;12.472;2024-01-15T14:50:23;5.07;;;2.10;;
72379;SDS011;60354;47.798;12.472;2024-01-15T14:52:49;3.75;;;1.48;;
72379;SDS011;60354;47.798;12.472;2024-01-15T14:55:14;2.30;;;1.33;;